Time;durP1;ratioP1;P1;durP2;ratioP2;P2;SDS_P1;SDS_P2;PMS_P1;PMS_P2;Temp;Humidity;BMP_temperature;BMP_pressure;BME280_temperature;BME280_humidity;BME280_pressure;Samples;Min_cycle;Max_cycle;Signal;HPM_P1;HPM_P2
2023/10/04 00:00:20;;;;;;;11.35;2.00;;;;;;;;;;5083374;28;20091;-80
2023/10/04 00:02:49;;;;;;;8.90;2.42;;;;;;;;;;5079373;28;20070;-81
2023/10/04 00:05:16;;;;;;;10.13;1.98;;;;;;;;;;5090543;28;20096;-80
2023/10/04 00:07:43;;;;;;;7.88;1.92;;;;;;;;;;5093621;28;20048;-81
2023/10/04 00:10:09;;;;;;;9.00;2.08;;;;;;;;;;5086493;28;20053;-82
2023/10/04 00:12:35;;;;;;;9.82;1.98;;;;;;;;;;5093700;28;20048;-81
2023/10/04 00:15:01;;;;;;;9.15;1.80;;;;;;;;;;5093360;28;20040;-80
2023/10/04 00:17:28;;;;;;;10.90;2.25;;;;;;;;;;5092272;28;20368;-81
2023/10/04 00:19:54;;;;;;;8.77;2.85;;;;;;;;;;5092249;28;20043;-83
2023/10/04 00:22:22;;;;;;;8.27;1.52;;;;;;;;;;5091428;28;20066;-80
2023/10/04 00:24:51;;;;;;;8.52;1.75;;;;;;;;;;5088819;28;20039;-81
2023/10/04 00:27:18;;;;;;;9.35;2.15;;;;;;;;;;5089475;28;20040;-81
2023/10/04 00:29:44;;;;;;;7.82;1.90;;;;;;;;;;5092802;28;20059;-80
2023/10/04 00:32:12;;;;;;;11.57;2.30;;;;;;;;;;5074630;28;20101;-80
2023/10/04 00:34:39;;;;;;;8.95;1.92;;;;;;;;;;5083601;28;20124;-80
2023/10/04 00:37:07;;;;;;;10.20;2.08;;;;;;;;;;5086479;28;20057;-80
2023/10/04 00:39:34;;;;;;;9.07;2.00;;;;;;;;;;5084045;28;20041;-80
2023/10/04 00:42:00;;;;;;;11.85;2.38;;;;;;;;;;5084439;28;20044;-80
2023/10/04 00:44:26;;;;;;;9.18;2.10;;;;;;;;;;5083311;28;20041;-81
2023/10/04 00:46:53;;;;;;;6.68;1.73;;;;;;;;;;5082525;28;20040;-81
2023/10/04 00:49:19;;;;;;;11.65;2.10;;;;;;;;;;5084501;28;20055;-82
2023/10/04 00:51:46;;;;;;;8.52;1.85;;;;;;;;;;5078629;28;20506;-80
2023/10/04 00:54:12;;;;;;;9.35;2.10;;;;;;;;;;5084978;28;20067;-81
2023/10/04 00:56:41;;;;;;;12.18;2.40;;;;;;;;;;5081887;28;20104;-81
2023/10/04 00:59:07;;;;;;;11.45;2.65;;;;;;;;;;5084112;28;20036;-81
2023/10/04 01:01:33;;;;;;;11.93;2.40;;;;;;;;;;5082152;28;20052;-81
2023/10/04 01:04:04;;;;;;;12.75;2.38;;;;;;;;;;5083073;28;20040;-81
2023/10/04 01:06:31;;;;;;;7.00;2.05;;;;;;;;;;5079953;28;20037;-81
2023/10/04 01:08:57;;;;;;;8.70;2.10;;;;;;;;;;5084236;28;20066;-81
2023/10/04 01:11:23;;;;;;;13.70;2.50;;;;;;;;;;5083510;28;20049;-81
2023/10/04 01:14:06;;;;;;;9.65;2.70;;;;;;;;;;5083475;28;20074;-81
2023/10/04 01:16:34;;;;;;;12.23;2.85;;;;;;;;;;5074006;28;20040;-81
2023/10/04 01:19:02;;;;;;;10.77;2.63;;;;;;;;;;5085386;28;20118;-81
2023/10/04 01:21:30;;;;;;;10.15;2.67;;;;;;;;;;5082339;28;20048;-82
2023/10/04 01:23:57;;;;;;;11.43;2.67;;;;;;;;;;5082886;28;20044;-82
2023/10/04 01:26:26;;;;;;;9.30;2.15;;;;;;;;;;5072095;28;20051;-82
2023/10/04 01:28:53;;;;;;;13.18;2.60;;;;;;;;;;5083322;28;20040;-80
2023/10/04 01:31:19;;;;;;;8.30;2.25;;;;;;;;;;5080634;28;20048;-81
2023/10/04 01:33:46;;;;;;;11.88;2.22;;;;;;;;;;5084385;28;20040;-81
2023/10/04 01:36:12;;;;;;;13.32;2.42;;;;;;;;;;5078099;28;20052;-81
2023/10/04 01:38:42;;;;;;;13.40;2.90;;;;;;;;;;5069354;28;20044;-82
2023/10/04 01:41:09;;;;;;;10.20;2.50;;;;;;;;;;5081946;28;20063;-83
2023/10/04 01:43:35;;;;;;;11.65;2.45;;;;;;;;;;5083752;28;20071;-81
2023/10/04 01:46:03;;;;;;;11.18;2.35;;;;;;;;;;5083202;28;20032;-83
2023/10/04 01:48:36;;;;;;;10.43;2.35;;;;;;;;;;5080082;28;20055;-81
2023/10/04 01:51:03;;;;;;;12.75;2.33;;;;;;;;;;5082054;28;20051;-81
2023/10/04 01:53:29;;;;;;;13.25;2.40;;;;;;;;;;5081375;28;20075;-82
2023/10/04 01:55:56;;;;;;;13.23;2.40;;;;;;;;;;5079365;28;20086;-82
2023/10/04 01:58:25;;;;;;;11.70;2.20;;;;;;;;;;5082133;28;20494;-80
2023/10/04 02:00:52;;;;;;;10.77;2.30;;;;;;;;;;5081810;28;20045;-80
2023/10/04 02:03:18;;;;;;;11.60;2.25;;;;;;;;;;5080467;28;20052;-80
2023/10/04 02:05:45;;;;;;;8.30;2.08;;;;;;;;;;5079015;28;20048;-81
2023/10/04 02:08:15;;;;;;;10.05;2.05;;;;;;;;;;5073797;28;20049;-80
2023/10/04 02:10:41;;;;;;;11.70;2.47;;;;;;;;;;5081015;28;20082;-81
2023/10/04 02:13:11;;;;;;;14.77;2.33;;;;;;;;;;5077278;28;20052;-80
2023/10/04 02:15:38;;;;;;;9.02;1.95;;;;;;;;;;5079983;28;20100;-82
2023/10/04 02:18:04;;;;;;;11.63;2.47;;;;;;;;;;5081315;28;20063;-82
2023/10/04 02:20:34;;;;;;;12.93;2.10;;;;;;;;;;5082040;28;20036;-81
2023/10/04 02:23:00;;;;;;;15.65;2.17;;;;;;;;;;5081428;28;20055;-80
2023/10/04 02:25:27;;;;;;;11.77;1.92;;;;;;;;;;5081993;28;20040;-80
2023/10/04 02:27:55;;;;;;;17.05;2.35;;;;;;;;;;5080873;28;20486;-81
2023/10/04 02:30:23;;;;;;;13.10;2.10;;;;;;;;;;5084478;28;20049;-81
2023/10/04 02:32:50;;;;;;;11.48;2.08;;;;;;;;;;5083078;28;20096;-80
2023/10/04 02:37:59;;;;;;;14.05;2.40;;;;;;;;;;5082510;28;20040;-80
2023/10/04 02:40:27;;;;;;;12.35;2.15;;;;;;;;;;5068432;28;20041;-81
2023/10/04 02:42:57;;;;;;;11.52;1.83;;;;;;;;;;5082953;28;20508;-81
2023/10/04 02:45:24;;;;;;;15.27;2.10;;;;;;;;;;5082346;28;20036;-79
2023/10/04 02:47:52;;;;;;;14.63;2.83;;;;;;;;;;5075804;28;20041;-80
2023/10/04 02:50:19;;;;;;;11.77;2.17;;;;;;;;;;5083171;28;20096;-81
2023/10/04 02:52:46;;;;;;;12.23;2.75;;;;;;;;;;5080048;28;20055;-80
2023/10/04 02:55:16;;;;;;;14.73;2.17;;;;;;;;;;5077831;28;20124;-80
2023/10/04 02:57:46;;;;;;;12.82;2.10;;;;;;;;;;5081549;28;20037;-81
2023/10/04 03:00:16;;;;;;;12.98;2.67;;;;;;;;;;5066285;28;20108;-82
2023/10/04 03:02:46;;;;;;;14.50;2.22;;;;;;;;;;5078487;28;20057;-81
2023/10/04 03:05:14;;;;;;;14.23;2.30;;;;;;;;;;5084529;28;20040;-81
2023/10/04 03:07:41;;;;;;;13.77;2.35;;;;;;;;;;5062930;28;20049;-83
2023/10/04 03:10:10;;;;;;;13.57;2.30;;;;;;;;;;5082908;28;20057;-81
2023/10/04 03:12:37;;;;;;;11.60;2.20;;;;;;;;;;5083292;28;20404;-80
2023/10/04 03:15:03;;;;;;;11.70;2.22;;;;;;;;;;5077627;28;20170;-82
2023/10/04 03:17:29;;;;;;;12.68;2.13;;;;;;;;;;5079576;28;20102;-81
2023/10/04 03:19:56;;;;;;;12.77;2.33;;;;;;;;;;5085191;28;20049;-81
2023/10/04 03:22:23;;;;;;;11.63;2.20;;;;;;;;;;5080709;28;20102;-83
2023/10/04 03:24:50;;;;;;;13.90;2.55;;;;;;;;;;5080050;28;20141;-80
2023/10/04 03:27:21;;;;;;;10.80;2.33;;;;;;;;;;5077812;28;20073;-81
2023/10/04 03:29:48;;;;;;;17.08;2.67;;;;;;;;;;5077613;28;20052;-81
2023/10/04 03:32:14;;;;;;;13.93;2.30;;;;;;;;;;5083820;28;20048;-81
2023/10/04 03:34:41;;;;;;;10.93;2.30;;;;;;;;;;5086543;28;20072;-81
2023/10/04 03:37:08;;;;;;;13.73;2.70;;;;;;;;;;5076150;28;20091;-81
2023/10/04 03:39:39;;;;;;;15.57;2.53;;;;;;;;;;5088690;28;20041;-81
2023/10/04 03:42:05;;;;;;;12.85;2.67;;;;;;;;;;5081823;28;20114;-82
2023/10/04 03:44:35;;;;;;;18.20;2.67;;;;;;;;;;5086752;28;20052;-81
2023/10/04 03:47:01;;;;;;;14.07;2.83;;;;;;;;;;5089032;28;20068;-81
2023/10/04 03:49:27;;;;;;;11.80;2.63;;;;;;;;;;5088204;28;20045;-80
2023/10/04 03:51:53;;;;;;;16.60;2.53;;;;;;;;;;5083217;28;20041;-80
2023/10/04 03:54:20;;;;;;;16.73;2.78;;;;;;;;;;5072057;28;20056;-82
2023/10/04 03:56:46;;;;;;;16.00;3.05;;;;;;;;;;5086467;28;20042;-81
2023/10/04 03:59:12;;;;;;;15.00;2.60;;;;;;;;;;5085616;28;20045;-81
2023/10/04 04:01:38;;;;;;;11.90;2.28;;;;;;;;;;5086007;28;20105;-81
2023/10/04 04:04:06;;;;;;;11.10;2.38;;;;;;;;;;5085934;28;20036;-81
2023/10/04 04:06:33;;;;;;;11.57;3.13;;;;;;;;;;5084907;28;20107;-82
2023/10/04 04:09:03;;;;;;;11.02;2.47;;;;;;;;;;5086250;28;20041;-81
2023/10/04 04:11:29;;;;;;;12.73;2.87;;;;;;;;;;5085985;28;20103;-82
2023/10/04 04:13:57;;;;;;;12.93;2.72;;;;;;;;;;5085365;28;20045;-81
2023/10/04 04:16:23;;;;;;;10.38;2.72;;;;;;;;;;5081702;28;20096;-81
2023/10/04 04:18:54;;;;;;;15.45;3.10;;;;;;;;;;5075112;28;20049;-82
2023/10/04 04:21:20;;;;;;;13.52;2.60;;;;;;;;;;5086490;28;20056;-81
2023/10/04 04:23:46;;;;;;;12.70;2.75;;;;;;;;;;5078889;28;20044;-82
2023/10/04 04:26:13;;;;;;;17.58;3.15;;;;;;;;;;5084467;28;20149;-81
2023/10/04 04:28:40;;;;;;;11.10;2.55;;;;;;;;;;5085402;28;20048;-82
2023/10/04 04:31:25;;;;;;;12.90;3.15;;;;;;;;;;5072334;28;20124;-80
2023/10/04 04:33:53;;;;;;;17.08;2.92;;;;;;;;;;5083635;28;20047;-81
2023/10/04 04:36:25;;;;;;;12.68;3.42;;;;;;;;;;5085339;28;20052;-82
2023/10/04 04:38:53;;;;;;;18.48;3.42;;;;;;;;;;5086011;28;20067;-80
2023/10/04 04:41:24;;;;;;;21.25;4.93;;;;;;;;;;5086690;28;20080;-81
2023/10/04 04:43:50;;;;;;;;;;;;;;;;;;5084928;28;20402;-80
2023/10/04 04:46:18;;;;;;;16.52;6.45;;;;;;;;;;5085942;28;19928;-80
2023/10/04 04:48:48;;;;;;;17.77;5.32;;;;;;;;;;5087058;28;20048;-83
2023/10/04 04:51:14;;;;;;;14.38;4.53;;;;;;;;;;5086077;28;20049;-81
2023/10/04 04:53:45;;;;;;;13.25;4.38;;;;;;;;;;5083820;28;20040;-81
2023/10/04 04:56:14;;;;;;;13.20;3.57;;;;;;;;;;5084790;28;20080;-81
2023/10/04 04:58:44;;;;;;;10.63;2.97;;;;;;;;;;5085821;28;20598;-82
2023/10/04 05:01:13;;;;;;;11.77;3.20;;;;;;;;;;5084577;28;20071;-81
2023/10/04 05:03:45;;;;;;;14.93;3.65;;;;;;;;;;5064315;28;20091;-81
2023/10/04 05:06:14;;;;;;;16.00;3.40;;;;;;;;;;5084656;28;20048;-81
2023/10/04 05:08:41;;;;;;;14.10;3.13;;;;;;;;;;5076155;28;20044;-80
2023/10/04 05:11:07;;;;;;;13.15;3.13;;;;;;;;;;5084357;28;20112;-80
2023/10/04 05:13:34;;;;;;;13.50;3.05;;;;;;;;;;5081327;28;20074;-82
2023/10/04 05:16:00;;;;;;;16.27;3.75;;;;;;;;;;5083277;28;20071;-81
2023/10/04 05:18:26;;;;;;;12.88;3.85;;;;;;;;;;5084019;28;20051;-81
2023/10/04 05:20:54;;;;;;;15.52;3.75;;;;;;;;;;5068735;28;20040;-81
2023/10/04 05:23:21;;;;;;;12.93;3.25;;;;;;;;;;5076849;28;20041;-81
2023/10/04 05:25:48;;;;;;;12.60;3.45;;;;;;;;;;5083346;28;20090;-81
2023/10/04 05:28:14;;;;;;;13.13;3.35;;;;;;;;;;5084716;28;20048;-81
2023/10/04 05:30:45;;;;;;;17.23;3.65;;;;;;;;;;5070727;28;20051;-81
2023/10/04 05:33:13;;;;;;;17.25;3.45;;;;;;;;;;5081297;28;21420;-80
2023/10/04 05:35:40;;;;;;;14.13;3.38;;;;;;;;;;5081222;28;20413;-81
2023/10/04 05:38:07;;;;;;;14.05;2.92;;;;;;;;;;5078940;28;20050;-82
2023/10/04 05:40:35;;;;;;;13.55;3.15;;;;;;;;;;5082405;28;20045;-80
2023/10/04 05:43:03;;;;;;;18.02;3.63;;;;;;;;;;5084297;28;20068;-82
2023/10/04 05:45:29;;;;;;;13.10;3.15;;;;;;;;;;5080334;28;20045;-80
2023/10/04 05:47:56;;;;;;;14.38;3.35;;;;;;;;;;5083334;28;20044;-81
2023/10/04 05:50:22;;;;;;;12.25;3.05;;;;;;;;;;5083468;28;20037;-81
2023/10/04 05:52:49;;;;;;;15.23;3.13;;;;;;;;;;5083038;28;20138;-81
2023/10/04 05:55:16;;;;;;;14.70;3.38;;;;;;;;;;5083585;28;20082;-81
2023/10/04 05:57:44;;;;;;;15.77;3.28;;;;;;;;;;5085003;28;20040;-81
2023/10/04 06:00:33;;;;;;;14.77;3.30;;;;;;;;;;5079950;28;20064;-81
2023/10/04 06:03:00;;;;;;;14.07;3.38;;;;;;;;;;5081776;28;20444;-81
2023/10/04 06:05:27;;;;;;;15.55;3.38;;;;;;;;;;5078726;28;20116;-82
2023/10/04 06:07:56;;;;;;;14.75;3.60;;;;;;;;;;5079271;28;20043;-82
2023/10/04 06:10:24;;;;;;;12.70;2.83;;;;;;;;;;5083111;28;20570;-81
2023/10/04 06:12:51;;;;;;;13.85;3.25;;;;;;;;;;5080327;28;20104;-81
2023/10/04 06:15:20;;;;;;;13.43;2.90;;;;;;;;;;5082278;28;20120;-82
2023/10/04 06:17:50;;;;;;;14.93;3.10;;;;;;;;;;5079063;28;20047;-81
2023/10/04 06:20:23;;;;;;;12.05;2.70;;;;;;;;;;5078679;28;20052;-81
2023/10/04 06:22:53;;;;;;;13.77;3.25;;;;;;;;;;5072084;28;20048;-82
2023/10/04 06:25:23;;;;;;;14.02;3.40;;;;;;;;;;5077870;28;20044;-81
2023/10/04 06:27:50;;;;;;;13.02;3.40;;;;;;;;;;5078684;28;20048;-82
2023/10/04 06:30:20;;;;;;;15.02;3.03;;;;;;;;;;5081187;28;20048;-82
2023/10/04 06:32:46;;;;;;;12.52;3.13;;;;;;;;;;5082615;28;20259;-82
2023/10/04 06:35:12;;;;;;;16.50;3.83;;;;;;;;;;5081243;28;20062;-83
2023/10/04 06:37:39;;;;;;;17.27;3.38;;;;;;;;;;5086992;28;20080;-81
2023/10/04 06:40:14;;;;;;;13.95;3.30;;;;;;;;;;5082116;28;20115;-81
2023/10/04 06:42:40;;;;;;;15.65;3.70;;;;;;;;;;5083950;28;20090;-81
2023/10/04 06:45:07;;;;;;;11.55;2.90;;;;;;;;;;5074533;28;20055;-81
2023/10/04 06:47:34;;;;;;;12.85;3.47;;;;;;;;;;5070900;28;20044;-81
2023/10/04 06:50:02;;;;;;;13.43;3.75;;;;;;;;;;5084030;28;20041;-80
2023/10/04 06:52:28;;;;;;;17.38;4.22;;;;;;;;;;5087587;28;20091;-81
2023/10/04 06:54:54;;;;;;;17.42;4.22;;;;;;;;;;5086156;28;20040;-82
2023/10/04 06:57:20;;;;;;;17.80;3.42;;;;;;;;;;5069825;28;20041;-81
2023/10/04 06:59:46;;;;;;;16.38;3.58;;;;;;;;;;5082052;28;20044;-82
2023/10/04 07:02:12;;;;;;;13.82;3.60;;;;;;;;;;5081630;28;20134;-81
2023/10/04 07:04:38;;;;;;;13.23;3.70;;;;;;;;;;5084147;28;20503;-81
2023/10/04 07:07:05;;;;;;;14.38;3.17;;;;;;;;;;5081340;28;20101;-82
2023/10/04 07:09:31;;;;;;;13.43;3.67;;;;;;;;;;5087402;28;20406;-81
2023/10/04 07:11:57;;;;;;;17.35;4.28;;;;;;;;;;5096966;28;20082;-81
2023/10/04 07:14:23;;;;;;;13.40;3.67;;;;;;;;;;5084247;28;20036;-81
2023/10/04 07:16:52;;;;;;;12.27;3.60;;;;;;;;;;5071185;28;20066;-82
2023/10/04 07:19:18;;;;;;;14.55;3.65;;;;;;;;;;5077016;28;20044;-82
2023/10/04 07:21:44;;;;;;;11.90;3.30;;;;;;;;;;5085932;28;20108;-81
2023/10/04 07:24:10;;;;;;;11.65;3.45;;;;;;;;;;5085970;28;20049;-81
2023/10/04 07:26:36;;;;;;;14.23;3.80;;;;;;;;;;5086652;28;20096;-82
2023/10/04 07:29:03;;;;;;;14.25;3.55;;;;;;;;;;5069901;28;20128;-81
2023/10/04 07:31:31;;;;;;;12.70;3.63;;;;;;;;;;5088105;28;20040;-81
2023/10/04 07:33:57;;;;;;;15.23;3.70;;;;;;;;;;5086246;28;20040;-82
2023/10/04 07:36:23;;;;;;;11.30;3.60;;;;;;;;;;5078613;28;20121;-82
2023/10/04 07:38:50;;;;;;;14.50;3.50;;;;;;;;;;5088334;28;20036;-82
2023/10/04 07:41:16;;;;;;;10.02;3.67;;;;;;;;;;5085878;28;20105;-82
2023/10/04 07:43:42;;;;;;;11.65;3.60;;;;;;;;;;5087561;28;20048;-81
2023/10/04 07:46:08;;;;;;;14.27;3.38;;;;;;;;;;5087599;28;20459;-81
2023/10/04 07:48:35;;;;;;;11.93;3.17;;;;;;;;;;5089974;28;20036;-81
2023/10/04 07:51:02;;;;;;;14.15;3.47;;;;;;;;;;5088801;28;20060;-80
2023/10/04 07:53:28;;;;;;;14.35;3.80;;;;;;;;;;5084948;28;20040;-82
2023/10/04 07:55:56;;;;;;;13.20;3.30;;;;;;;;;;5088572;28;20079;-81
2023/10/04 07:58:22;;;;;;;12.35;3.50;;;;;;;;;;5085505;28;20043;-82
2023/10/04 08:03:26;;;;;;;13.73;4.00;;;;;;;;;;6022165;22;20037;-81
2023/10/04 08:05:52;;;;;;;14.18;3.47;;;;;;;;;;5108466;22;20139;-78
2023/10/04 08:08:18;;;;;;;15.40;3.60;;;;;;;;;;5086735;28;20040;-76
2023/10/04 08:10:44;;;;;;;15.27;4.13;;;;;;;;;;5089854;28;20092;-78
2023/10/04 08:13:10;;;;;;;15.80;3.42;;;;;;;;;;5089564;28;20052;-77
2023/10/04 08:15:36;;;;;;;14.43;3.65;;;;;;;;;;5097321;28;20067;-77
2023/10/04 08:18:03;;;;;;;14.52;3.72;;;;;;;;;;5094543;28;20083;-77
2023/10/04 08:20:32;;;;;;;13.70;3.63;;;;;;;;;;5095185;28;20501;-77
2023/10/04 08:22:58;;;;;;;18.50;3.88;;;;;;;;;;5094131;28;20171;-77
2023/10/04 08:25:27;;;;;;;18.20;3.72;;;;;;;;;;5101540;28;20055;-77
2023/10/04 08:27:53;;;;;;;19.90;4.10;;;;;;;;;;5101737;28;20055;-77
2023/10/04 08:30:20;;;;;;;13.68;3.50;;;;;;;;;;5095560;28;20040;-77
2023/10/04 08:32:48;;;;;;;15.45;4.03;;;;;;;;;;5094861;28;20051;-76
2023/10/04 08:35:35;;;;;;;15.77;3.97;;;;;;;;;;5101870;28;20081;-77
2023/10/04 08:38:05;;;;;;;15.00;4.10;;;;;;;;;;5115566;28;20073;-77
2023/10/04 08:40:35;;;;;;;12.70;3.67;;;;;;;;;;5120299;28;20099;-77
2023/10/04 08:43:01;;;;;;;11.75;3.92;;;;;;;;;;5113358;28;20062;-77
2023/10/04 08:45:29;;;;;;;15.95;4.00;;;;;;;;;;5108772;28;20063;-74
2023/10/04 08:47:56;;;;;;;12.93;3.80;;;;;;;;;;5108895;28;20040;-77
2023/10/04 08:50:52;;;;;;;13.25;3.70;;;;;;;;;;5121739;28;20096;-77
2023/10/04 08:53:18;;;;;;;18.38;4.30;;;;;;;;;;5108700;28;20051;-75
2023/10/04 08:55:49;;;;;;;15.80;3.70;;;;;;;;;;5131026;27;20048;-77
2023/10/04 08:58:16;;;;;;;15.70;4.20;;;;;;;;;;5127284;28;20057;-77
2023/10/04 09:00:45;;;;;;;11.13;3.50;;;;;;;;;;5129565;28;20046;-77
2023/10/04 09:03:13;;;;;;;13.75;3.95;;;;;;;;;;5128155;28;20044;-78
2023/10/04 09:05:46;;;;;;;12.82;4.30;;;;;;;;;;5130727;28;20068;-78
2023/10/04 09:08:12;;;;;;;16.35;4.20;;;;;;;;;;5133726;28;20043;-78
2023/10/04 09:10:39;;;;;;;14.25;3.70;;;;;;;;;;5124294;28;20043;-79
2023/10/04 09:13:06;;;;;;;14.23;3.80;;;;;;;;;;5120106;28;20055;-77
2023/10/04 09:15:32;;;;;;;17.45;3.95;;;;;;;;;;5123979;28;20062;-78
2023/10/04 09:17:58;;;;;;;17.38;3.80;;;;;;;;;;5125291;28;20043;-77
2023/10/04 09:20:29;;;;;;;14.95;3.70;;;;;;;;;;5108270;28;20055;-78
2023/10/04 09:22:56;;;;;;;13.65;3.70;;;;;;;;;;5119227;28;20043;-78
2023/10/04 09:25:22;;;;;;;12.43;3.72;;;;;;;;;;5114350;28;20092;-77
2023/10/04 09:27:55;;;;;;;15.90;4.28;;;;;;;;;;5117387;27;20483;-78
2023/10/04 09:30:24;;;;;;;14.38;4.30;;;;;;;;;;5118233;28;20127;-78
2023/10/04 09:32:53;;;;;;;13.00;4.03;;;;;;;;;;5121606;28;20386;-78
2023/10/04 09:35:19;;;;;;;18.25;4.35;;;;;;;;;;5119170;28;20135;-78
2023/10/04 09:37:49;;;;;;;13.07;4.55;;;;;;;;;;5106793;28;20578;-77
2023/10/04 09:40:17;;;;;;;15.98;4.18;;;;;;;;;;5116439;28;20143;-77
2023/10/04 09:42:55;;;;;;;16.50;4.30;;;;;;;;;;5116986;28;20048;-77
2023/10/04 09:45:24;;;;;;;14.32;4.05;;;;;;;;;;5114233;28;20055;-78
2023/10/04 09:50:28;;;;;;;15.52;4.50;;;;;;;;;;5084271;28;20108;-84
2023/10/04 09:52:55;;;;;;;11.30;3.92;;;;;;;;;;5093167;28;20063;-84
2023/10/04 09:55:22;;;;;;;12.48;4.20;;;;;;;;;;5095942;28;20040;-84
2023/10/04 09:57:49;;;;;;;13.35;3.83;;;;;;;;;;5095330;28;20091;-83
2023/10/04 10:00:18;;;;;;;13.13;4.40;;;;;;;;;;5094701;28;20051;-85
2023/10/04 10:02:49;;;;;;;12.10;3.63;;;;;;;;;;5092779;28;20048;-83
2023/10/04 10:05:43;;;;;;;12.95;4.03;;;;;;;;;;5090904;28;20048;-83
2023/10/04 10:08:12;;;;;;;13.38;3.92;;;;;;;;;;5088946;28;20060;-84
2023/10/04 10:10:40;;;;;;;14.32;4.70;;;;;;;;;;5091851;28;20043;-85
2023/10/04 10:13:09;;;;;;;13.93;4.47;;;;;;;;;;5077699;28;20037;-83
2023/10/04 10:15:35;;;;;;;13.93;4.30;;;;;;;;;;5084069;28;20041;-82
2023/10/04 10:18:01;;;;;;;15.43;4.68;;;;;;;;;;5082172;28;20075;-83
2023/10/04 10:20:28;;;;;;;13.80;4.43;;;;;;;;;;5087409;28;20055;-83
2023/10/04 10:23:00;;;;;;;13.13;4.18;;;;;;;;;;5079935;28;20060;-81
2023/10/04 10:25:27;;;;;;;12.50;3.80;;;;;;;;;;5078173;28;20077;-82
2023/10/04 10:27:57;;;;;;;13.65;4.13;;;;;;;;;;5080328;28;20045;-82
2023/10/04 10:30:23;;;;;;;12.95;4.32;;;;;;;;;;5084111;28;20049;-83
2023/10/04 10:32:55;;;;;;;17.85;4.63;;;;;;;;;;5084906;28;20028;-83
2023/10/04 10:35:40;;;;;;;15.82;4.45;;;;;;;;;;5082874;28;20123;-83
2023/10/04 10:38:25;;;;;;;14.50;4.28;;;;;;;;;;5084194;28;20036;-84
2023/10/04 10:40:51;;;;;;;12.27;3.70;;;;;;;;;;5090213;28;20040;-84
2023/10/04 10:43:18;;;;;;;13.63;4.30;;;;;;;;;;5090678;28;20090;-83
2023/10/04 10:45:44;;;;;;;14.13;4.10;;;;;;;;;;5088470;28;20040;-84
2023/10/04 10:48:14;;;;;;;12.68;3.97;;;;;;;;;;5092114;28;20048;-84
2023/10/04 10:50:42;;;;;;;15.88;4.47;;;;;;;;;;5088613;28;20075;-82
2023/10/04 10:53:11;;;;;;;12.35;4.15;;;;;;;;;;5094913;28;20044;-83
2023/10/04 10:55:39;;;;;;;14.77;4.55;;;;;;;;;;5094559;28;20037;-82
2023/10/04 10:58:07;;;;;;;14.20;4.25;;;;;;;;;;5093188;28;20071;-82
2023/10/04 11:00:33;;;;;;;18.10;4.88;;;;;;;;;;5093514;28;20048;-82
2023/10/04 11:03:00;;;;;;;15.38;4.57;;;;;;;;;;5091601;28;20348;-82
2023/10/04 11:05:27;;;;;;;15.27;4.60;;;;;;;;;;5092048;28;20074;-84
2023/10/04 11:07:55;;;;;;;14.82;4.63;;;;;;;;;;5090733;28;20044;-84
2023/10/04 11:10:23;;;;;;;13.27;4.38;;;;;;;;;;5088228;28;20045;-83
2023/10/04 11:12:54;;;;;;;13.27;3.88;;;;;;;;;;5084510;28;20056;-82
2023/10/04 11:15:23;;;;;;;15.48;4.93;;;;;;;;;;5082910;28;20056;-83
2023/10/04 11:17:50;;;;;;;15.00;4.90;;;;;;;;;;5085353;28;20036;-83
2023/10/04 11:20:17;;;;;;;16.63;4.80;;;;;;;;;;5091701;28;20356;-83
2023/10/04 11:22:44;;;;;;;16.75;5.07;;;;;;;;;;5069438;28;20045;-81
2023/10/04 11:25:12;;;;;;;19.38;5.00;;;;;;;;;;5070899;28;20051;-83
2023/10/04 11:27:40;;;;;;;15.43;4.10;;;;;;;;;;5083281;28;20103;-81
2023/10/04 11:30:10;;;;;;;14.10;4.15;;;;;;;;;;5088763;28;20045;-81
2023/10/04 11:32:38;;;;;;;13.95;5.13;;;;;;;;;;5088896;28;20104;-82
2023/10/04 11:35:08;;;;;;;16.23;4.95;;;;;;;;;;5092342;28;20041;-81
2023/10/04 11:37:39;;;;;;;13.35;4.90;;;;;;;;;;5089271;28;20037;-82
2023/10/04 11:40:09;;;;;;;15.75;5.07;;;;;;;;;;5093006;28;20127;-82
2023/10/04 11:42:36;;;;;;;15.05;4.85;;;;;;;;;;5094046;28;20048;-81
2023/10/04 11:45:02;;;;;;;14.32;4.85;;;;;;;;;;5090888;28;20047;-83
2023/10/04 11:47:31;;;;;;;13.30;4.68;;;;;;;;;;5085075;28;20124;-83
2023/10/04 11:49:59;;;;;;;15.55;4.93;;;;;;;;;;5089448;28;20052;-82
2023/10/04 11:52:29;;;;;;;16.27;4.35;;;;;;;;;;5091301;28;20040;-80
2023/10/04 11:54:55;;;;;;;14.38;4.30;;;;;;;;;;5090801;28;20100;-83
2023/10/04 11:57:28;;;;;;;14.77;5.60;;;;;;;;;;5081426;28;20044;-82
2023/10/04 11:59:59;;;;;;;15.15;4.93;;;;;;;;;;5089147;28;20101;-82
2023/10/04 12:02:25;;;;;;;12.07;4.77;;;;;;;;;;5091124;28;20044;-83
2023/10/04 12:04:52;;;;;;;16.83;4.53;;;;;;;;;;5090853;28;20043;-83
2023/10/04 12:07:18;;;;;;;18.15;4.55;;;;;;;;;;5088174;28;20048;-83
2023/10/04 12:09:45;;;;;;;13.82;4.93;;;;;;;;;;5088472;28;20055;-82
2023/10/04 12:12:16;;;;;;;12.68;4.25;;;;;;;;;;5087626;28;20044;-83
2023/10/04 12:14:43;;;;;;;15.35;5.00;;;;;;;;;;5080635;28;20053;-83
2023/10/04 12:17:09;;;;;;;16.42;4.57;;;;;;;;;;5090244;28;20052;-83
2023/10/04 12:19:35;;;;;;;13.35;4.60;;;;;;;;;;5088972;28;20045;-83
2023/10/04 12:22:08;;;;;;;15.75;4.82;;;;;;;;;;5086352;28;20043;-83
2023/10/04 12:24:38;;;;;;;12.23;4.93;;;;;;;;;;5086553;28;20062;-82
2023/10/04 12:27:08;;;;;;;14.30;4.55;;;;;;;;;;5085178;28;20053;-82
2023/10/04 12:29:36;;;;;;;13.95;4.70;;;;;;;;;;5088626;28;20056;-82
2023/10/04 12:32:02;;;;;;;13.32;4.65;;;;;;;;;;5086011;28;20057;-83
2023/10/04 12:34:29;;;;;;;15.32;4.30;;;;;;;;;;5091045;28;20047;-82
2023/10/04 12:36:56;;;;;;;15.43;4.30;;;;;;;;;;5091689;28;20100;-82
2023/10/04 12:39:22;;;;;;;12.95;4.55;;;;;;;;;;5091354;28;20040;-81
2023/10/04 12:41:49;;;;;;;13.98;4.22;;;;;;;;;;5090914;28;20044;-82
2023/10/04 12:44:17;;;;;;;15.00;4.40;;;;;;;;;;5090835;28;20052;-83
2023/10/04 12:46:43;;;;;;;12.07;4.20;;;;;;;;;;5073820;28;20074;-81
2023/10/04 12:49:10;;;;;;;13.90;4.35;;;;;;;;;;5087920;28;20127;-80
2023/10/04 12:51:36;;;;;;;12.93;4.38;;;;;;;;;;5089159;28;20104;-83
2023/10/04 12:54:03;;;;;;;15.30;4.57;;;;;;;;;;5087347;28;20116;-82
2023/10/04 12:56:29;;;;;;;13.57;4.55;;;;;;;;;;5084206;28;20066;-82
2023/10/04 12:58:55;;;;;;;19.13;4.75;;;;;;;;;;5090074;28;20044;-81
2023/10/04 13:01:21;;;;;;;14.98;3.95;;;;;;;;;;5090439;28;20045;-82
2023/10/04 13:03:48;;;;;;;13.68;4.03;;;;;;;;;;5089201;28;20053;-81
2023/10/04 13:06:14;;;;;;;13.52;4.22;;;;;;;;;;5089552;28;20053;-80
2023/10/04 13:08:43;;;;;;;16.23;4.80;;;;;;;;;;5090450;28;20444;-82
2023/10/04 13:11:11;;;;;;;13.43;4.40;;;;;;;;;;5076720;28;20075;-82
2023/10/04 13:13:43;;;;;;;13.43;4.72;;;;;;;;;;5080679;28;20041;-81
2023/10/04 13:16:10;;;;;;;14.40;4.53;;;;;;;;;;5081748;28;20060;-82
2023/10/04 13:18:37;;;;;;;17.52;4.65;;;;;;;;;;5089531;28;20096;-83
2023/10/04 13:21:04;;;;;;;12.88;4.72;;;;;;;;;;5071203;28;20052;-83
2023/10/04 13:23:33;;;;;;;14.27;4.32;;;;;;;;;;5087480;28;20045;-83
2023/10/04 13:25:59;;;;;;;13.93;4.00;;;;;;;;;;5089826;28;20041;-81
2023/10/04 13:28:27;;;;;;;16.83;4.45;;;;;;;;;;5090770;28;20048;-84
2023/10/04 13:30:57;;;;;;;12.57;3.75;;;;;;;;;;5090397;28;20130;-82
2023/10/04 13:33:24;;;;;;;13.82;4.50;;;;;;;;;;5090566;28;20048;-81
2023/10/04 13:35:51;;;;;;;13.25;4.38;;;;;;;;;;5090162;28;20063;-83
2023/10/04 13:38:21;;;;;;;13.73;3.95;;;;;;;;;;5090883;28;20044;-81
2023/10/04 13:40:47;;;;;;;14.90;4.65;;;;;;;;;;5090950;28;20070;-79
2023/10/04 13:43:14;;;;;;;14.80;4.47;;;;;;;;;;5086398;28;20487;-81
2023/10/04 13:45:40;;;;;;;13.27;4.47;;;;;;;;;;5089003;28;20250;-83
2023/10/04 13:48:09;;;;;;;13.45;3.78;;;;;;;;;;5087974;28;20109;-81
2023/10/04 13:50:37;;;;;;;12.68;3.95;;;;;;;;;;5086487;28;20043;-82
2023/10/04 13:53:03;;;;;;;11.52;4.10;;;;;;;;;;5083470;28;20684;-82
2023/10/04 13:55:29;;;;;;;12.65;4.00;;;;;;;;;;5079523;28;20040;-81
2023/10/04 13:57:56;;;;;;;14.70;3.80;;;;;;;;;;5085401;28;20052;-80
2023/10/04 14:00:25;;;;;;;12.60;3.53;;;;;;;;;;5079026;28;20051;-81
2023/10/04 14:02:55;;;;;;;13.57;4.03;;;;;;;;;;5075602;28;20526;-83
2023/10/04 14:05:22;;;;;;;12.25;3.65;;;;;;;;;;5082254;28;20047;-82
2023/10/04 14:07:51;;;;;;;15.93;4.10;;;;;;;;;;5089496;28;20048;-82
2023/10/04 14:10:24;;;;;;;13.85;4.05;;;;;;;;;;5089354;28;20100;-80
2023/10/04 14:12:55;;;;;;;13.68;3.90;;;;;;;;;;5089729;28;20048;-81
2023/10/04 14:15:28;;;;;;;13.57;3.60;;;;;;;;;;5087604;28;20053;-82
2023/10/04 14:17:55;;;;;;;11.00;3.55;;;;;;;;;;5074323;28;20044;-80
2023/10/04 14:20:21;;;;;;;15.00;4.13;;;;;;;;;;5088909;28;20410;-81
2023/10/04 14:22:51;;;;;;;14.30;3.45;;;;;;;;;;5089307;28;20534;-83
2023/10/04 14:25:17;;;;;;;13.02;4.05;;;;;;;;;;5089892;28;20079;-83
2023/10/04 14:27:43;;;;;;;13.07;3.72;;;;;;;;;;5089619;28;20045;-82
2023/10/04 14:30:18;;;;;;;14.30;4.40;;;;;;;;;;5088695;28;20077;-82
2023/10/04 14:32:47;;;;;;;14.40;5.30;;;;;;;;;;5090111;28;20505;-81
2023/10/04 14:35:13;;;;;;;16.95;5.45;;;;;;;;;;5083304;28;20076;-81
2023/10/04 14:37:40;;;;;;;14.90;4.55;;;;;;;;;;5085345;28;20062;-83
2023/10/04 14:40:14;;;;;;;15.77;4.68;;;;;;;;;;5084952;28;20070;-81
2023/10/04 14:42:41;;;;;;;14.43;4.60;;;;;;;;;;5089602;28;20499;-83